Time;durP1;ratioP1;P1;durP2;ratioP2;P2;SDS_P1;SDS_P2;PMS_P1;PMS_P2;Temp;Humidity;BMP_temperature;BMP_pressure;BME280_temperature;BME280_humidity;BME280_pressure;Samples;Min_cycle;Max_cycle;Signal;HPM_P1;HPM_P2
2022/12/20 00:01:29;;;;;;;;;;;9.20;99.90;;;;;;4994786;28;19926;-69
2022/12/20 00:03:56;;;;;;;;;;;9.10;99.90;;;;;;5006979;28;20383;-70
2022/12/20 00:06:22;;;;;;;;;;;9.10;99.90;;;;;;5025120;28;19933;-69
2022/12/20 00:08:52;;;;;;;;;;;9.10;99.90;;;;;;5025034;28;20433;-69
2022/12/20 00:11:18;;;;;;;;;;;9.20;99.90;;;;;;5003906;28;19926;-69
2022/12/20 00:13:47;;;;;;;;;;;9.10;99.90;;;;;;5023621;28;20389;-69
2022/12/20 00:16:18;;;;;;;;;;;9.10;99.90;;;;;;5014281;28;19929;-69
2022/12/20 00:18:44;;;;;;;;;;;9.00;99.90;;;;;;5018946;28;19928;-69
2022/12/20 00:21:11;;;;;;;;;;;9.00;99.90;;;;;;5011830;28;20365;-69
2022/12/20 00:23:37;;;;;;;;;;;9.10;99.90;;;;;;5009478;28;19929;-69
2022/12/20 00:26:03;;;;;;;;;;;9.10;99.90;;;;;;5008907;28;20291;-69
2022/12/20 00:28:32;;;;;;;;;;;9.20;99.90;;;;;;5024767;28;19926;-70
2022/12/20 00:31:01;;;;;;;;;;;9.20;99.90;;;;;;4988713;28;20310;-69
2022/12/20 00:33:27;;;;;;;;;;;9.20;99.90;;;;;;5012525;28;20401;-69
2022/12/20 00:35:56;;;;;;;;;;;9.20;99.90;;;;;;5013540;28;19925;-69
2022/12/20 00:38:24;;;;;;;;;;;9.20;99.90;;;;;;5020652;28;20442;-69
2022/12/20 00:41:01;;;;;;;;;;;9.30;99.90;;;;;;5012705;28;19974;-69
2022/12/20 00:43:27;;;;;;;;;;;9.30;99.90;;;;;;5007147;28;20012;-69
2022/12/20 00:45:53;;;;;;;;;;;9.40;99.90;;;;;;5008650;28;19928;-69
2022/12/20 00:48:19;;;;;;;;;;;9.40;99.90;;;;;;5005160;28;20450;-69
2022/12/20 00:50:44;;;;;;;;;;;9.50;99.90;;;;;;5015867;28;20020;-69
2022/12/20 00:53:10;;;;;;;;;;;9.40;99.90;;;;;;4988592;28;19922;-69
2022/12/20 00:55:43;;;;;;;;;;;9.40;99.90;;;;;;4997986;28;19926;-69
2022/12/20 00:58:09;;;;;;;;;;;9.40;99.90;;;;;;4991436;28;19968;-70
2022/12/20 01:00:35;;;;;;;;;;;9.50;99.90;;;;;;5019478;28;19928;-69
2022/12/20 01:03:01;;;;;;;;;;;9.50;99.90;;;;;;5024243;28;20299;-69
2022/12/20 01:05:29;;;;;;;;;;;9.50;99.90;;;;;;5020883;28;19925;-69
2022/12/20 01:07:55;;;;;;;;;;;9.40;99.90;;;;;;5027114;28;19948;-69
2022/12/20 01:10:21;;;;;;;;;;;9.40;99.90;;;;;;5011045;28;19926;-69
2022/12/20 01:12:49;;;;;;;;;;;9.40;99.90;;;;;;4995835;28;20316;-69
2022/12/20 01:15:15;;;;;;;;;;;9.40;99.90;;;;;;5006095;28;19933;-69
2022/12/20 01:17:41;;;;;;;;;;;9.40;99.90;;;;;;5006580;28;19929;-69
2022/12/20 01:20:07;;;;;;;;;;;9.40;99.90;;;;;;5037624;28;19957;-69
2022/12/20 01:22:32;;;;;;;;;;;9.40;99.90;;;;;;4995529;28;19941;-69
2022/12/20 01:24:58;;;;;;;;;;;9.50;99.90;;;;;;5013911;28;20070;-69
2022/12/20 01:27:24;;;;;;;;;;;9.40;99.90;;;;;;5032333;27;19920;-69
2022/12/20 01:29:50;;;;;;;;;;;9.40;99.90;;;;;;5023427;28;19922;-69
2022/12/20 01:32:16;;;;;;;;;;;9.50;99.90;;;;;;5002261;28;19922;-69
2022/12/20 01:34:44;;;;;;;;;;;9.50;99.90;;;;;;5015534;28;19967;-69
2022/12/20 01:37:10;;;;;;;;;;;9.50;99.90;;;;;;5012412;28;20279;-69
2022/12/20 01:39:36;;;;;;;;;;;9.70;99.90;;;;;;5005374;28;19933;-69
2022/12/20 01:42:04;;;;;;;;;;;9.50;99.90;;;;;;5023468;28;20379;-69
2022/12/20 01:44:30;;;;;;;;;;;9.50;99.90;;;;;;5003833;28;19933;-69
2022/12/20 01:46:56;;;;;;;;;;;9.40;99.90;;;;;;5020060;28;19928;-69
2022/12/20 01:49:33;;;;;;;;;;;9.40;99.90;;;;;;5019714;28;19921;-69
2022/12/20 01:52:02;;;;;;;;;;;9.50;99.90;;;;;;5005517;28;19972;-69
2022/12/20 01:54:41;;;;;;;;;;;9.50;99.90;;;;;;5009590;28;19924;-69
2022/12/20 01:57:09;;;;;;;;;;;9.50;99.90;;;;;;5057305;27;19969;-69
2022/12/20 01:59:36;;;;;;;;;;;9.50;99.90;;;;;;5005537;28;19983;-70
2022/12/20 02:02:03;;;;;;;;;;;9.50;99.90;;;;;;4992332;28;19929;-71
2022/12/20 02:04:29;;;;;;;;;;;9.50;99.90;;;;;;5015170;28;19926;-70
2022/12/20 02:06:56;;;;;;;;;;;9.50;99.90;;;;;;5013327;28;19961;-71
2022/12/20 02:09:22;;;;;;;;;;;9.50;99.90;;;;;;4994146;28;19923;-70
2022/12/20 02:12:04;;;;;;;;;;;9.50;99.90;;;;;;5006054;28;19922;-70
2022/12/20 02:14:34;;;;;;;;;;;9.50;99.90;;;;;;5004680;28;19921;-71
2022/12/20 02:17:25;;;;;;;;;;;9.60;99.90;;;;;;5010733;28;19994;-71
2022/12/20 02:20:10;;;;;;;;;;;9.60;99.90;;;;;;5024856;27;19926;-70
2022/12/20 02:22:51;;;;;;;;;;;9.70;99.90;;;;;;4996039;28;19932;-70
2022/12/20 02:25:35;;;;;;;;;;;9.70;99.90;;;;;;5020121;28;19933;-71
2022/12/20 02:28:27;;;;;;;;;;;9.70;99.90;;;;;;5020841;28;20493;-70
2022/12/20 02:30:55;;;;;;;;;;;9.70;99.90;;;;;;5023016;28;20002;-70
2022/12/20 02:33:23;;;;;;;;;;;9.80;99.90;;;;;;5022814;28;19969;-71
2022/12/20 02:35:49;;;;;;;;;;;9.80;99.90;;;;;;5024948;27;19933;-70
2022/12/20 02:38:23;;;;;;;;;;;9.80;99.90;;;;;;4991393;28;19959;-70
2022/12/20 02:40:52;;;;;;;;;;;9.80;99.90;;;;;;5007806;28;20323;-70
2022/12/20 02:46:03;;;;;;;;;;;9.80;99.90;;;;;;5019974;27;19922;-70
2022/12/20 02:48:31;;;;;;;;;;;9.80;99.90;;;;;;5017076;28;19927;-70
2022/12/20 02:51:00;;;;;;;;;;;9.80;99.90;;;;;;5013874;28;20383;-70
2022/12/20 02:53:28;;;;;;;;;;;9.70;99.90;;;;;;4998173;28;20373;-70
2022/12/20 02:55:53;;;;;;;;;;;9.70;99.90;;;;;;5020440;28;20401;-71
2022/12/20 02:58:25;;;;;;;;;;;9.60;99.90;;;;;;5038350;27;19921;-70
2022/12/20 03:00:52;;;;;;;;;;;9.60;99.90;;;;;;5003444;28;20287;-71
2022/12/20 03:03:26;;;;;;;;;;;9.60;99.90;;;;;;5016756;28;20391;-70
2022/12/20 03:05:53;;;;;;;;;;;9.70;99.90;;;;;;5021542;27;20016;-70
2022/12/20 03:08:20;;;;;;;;;;;9.70;99.90;;;;;;5016904;28;20302;-70
2022/12/20 03:10:46;;;;;;;;;;;9.70;99.90;;;;;;5041165;27;19922;-70
2022/12/20 03:13:12;;;;;;;;;;;9.70;99.90;;;;;;5011101;28;19928;-71
2022/12/20 03:15:41;;;;;;;;;;;9.70;99.90;;;;;;5001130;28;20008;-70
2022/12/20 03:18:06;;;;;;;;;;;9.70;99.90;;;;;;5013550;28;19999;-70
2022/12/20 03:20:32;;;;;;;;;;;9.70;99.90;;;;;;5003205;28;20415;-69
2022/12/20 03:22:58;;;;;;;;;;;9.70;99.90;;;;;;5016241;28;19936;-69
2022/12/20 03:25:24;;;;;;;;;;;9.60;99.90;;;;;;5021666;28;20284;-69
2022/12/20 03:27:49;;;;;;;;;;;9.50;99.90;;;;;;5009020;28;20016;-71
2022/12/20 03:30:18;;;;;;;;;;;9.40;99.90;;;;;;5004969;28;19975;-70
2022/12/20 03:32:44;;;;;;;;;;;9.40;99.90;;;;;;5016191;28;20290;-70
2022/12/20 03:35:09;;;;;;;;;;;9.40;99.90;;;;;;5050386;28;19927;-70
2022/12/20 03:37:35;;;;;;;;;;;9.30;99.90;;;;;;5013145;28;19928;-69
2022/12/20 03:40:01;;;;;;;;;;;9.30;99.90;;;;;;4999303;28;20041;-70
2022/12/20 03:42:26;;;;;;;;;;;9.30;99.90;;;;;;5054284;28;19924;-71
2022/12/20 03:44:52;;;;;;;;;;;9.30;99.90;;;;;;5036425;28;20020;-70
2022/12/20 03:47:18;;;;;;;;;;;9.20;99.90;;;;;;5036578;28;19969;-70
2022/12/20 03:49:44;;;;;;;;;;;9.30;99.90;;;;;;5021360;28;19920;-70
2022/12/20 03:52:12;;;;;;;;;;;9.30;99.90;;;;;;5016854;28;19920;-70
2022/12/20 03:54:38;;;;;;;;;;;9.30;99.90;;;;;;5011319;28;19925;-71
2022/12/20 03:57:04;;;;;;;;;;;10.00;99.90;;;;;;5030924;28;19920;-71
2022/12/20 03:59:30;;;;;;;;;;;9.20;99.90;;;;;;5006210;28;20009;-70
2022/12/20 04:01:55;;;;;;;;;;;9.20;99.90;;;;;;4994344;28;20008;-70
2022/12/20 04:04:21;;;;;;;;;;;9.20;99.90;;;;;;5006758;28;19926;-71
2022/12/20 04:06:47;;;;;;;;;;;9.20;99.90;;;;;;5000537;28;19953;-70
2022/12/20 04:09:13;;;;;;;;;;;9.10;99.90;;;;;;5006930;28;19922;-71
2022/12/20 04:11:38;;;;;;;;;;;9.20;99.90;;;;;;5006038;28;20352;-70
2022/12/20 04:14:04;;;;;;;;;;;9.20;99.90;;;;;;4994830;28;20303;-70
2022/12/20 04:16:30;;;;;;;;;;;9.20;99.90;;;;;;4977006;28;19922;-70
2022/12/20 04:18:56;;;;;;;;;;;9.20;99.90;;;;;;5004217;28;19952;-70
2022/12/20 04:21:23;;;;;;;;;;;9.20;99.90;;;;;;5024341;28;19921;-70
2022/12/20 04:23:48;;;;;;;;;;;9.30;99.90;;;;;;5036151;27;20053;-71
2022/12/20 04:26:14;;;;;;;;;;;9.30;99.90;;;;;;5014021;28;20379;-71
2022/12/20 04:28:40;;;;;;;;;;;9.20;99.90;;;;;;5018594;28;19922;-70
2022/12/20 04:31:05;;;;;;;;;;;9.20;99.90;;;;;;4994492;28;19928;-70
2022/12/20 04:33:31;;;;;;;;;;;9.20;99.90;;;;;;5008550;28;20398;-71
2022/12/20 04:35:57;;;;;;;;;;;9.20;99.90;;;;;;5001377;28;19954;-70
2022/12/20 04:38:23;;;;;;;;;;;9.20;99.90;;;;;;4991583;28;19930;-70
2022/12/20 04:40:49;;;;;;;;;;;9.20;99.90;;;;;;5005924;28;20615;-71
2022/12/20 04:43:15;;;;;;;;;;;9.20;99.90;;;;;;4994121;28;19925;-69
2022/12/20 04:45:43;;;;;;;;;;;9.20;99.90;;;;;;5008734;28;19928;-70
2022/12/20 04:48:08;;;;;;;;;;;9.10;99.90;;;;;;5003564;28;19926;-70
2022/12/20 04:50:34;;;;;;;;;;;9.20;99.90;;;;;;5019912;28;19971;-70
2022/12/20 04:55:44;;;;;;;;;;;9.20;99.90;;;;;;4989008;28;19921;-69
2022/12/20 04:58:10;;;;;;;;;;;9.20;99.90;;;;;;5010788;28;19928;-70
2022/12/20 05:00:35;;;;;;;;;;;9.30;99.90;;;;;;5003175;28;19944;-69
2022/12/20 05:03:01;;;;;;;;;;;9.20;99.90;;;;;;5010519;28;19929;-71
2022/12/20 05:05:27;;;;;;;;;;;9.30;99.90;;;;;;5022369;28;19973;-70
2022/12/20 05:07:53;;;;;;;;;;;9.40;99.90;;;;;;5007412;28;19921;-71
2022/12/20 05:10:18;;;;;;;;;;;9.40;99.90;;;;;;5033297;28;19925;-70
2022/12/20 05:12:44;;;;;;;;;;;9.50;99.90;;;;;;5003198;28;20015;-70
2022/12/20 05:15:11;;;;;;;;;;;9.60;99.90;;;;;;5005689;28;19967;-70
2022/12/20 05:17:36;;;;;;;;;;;9.60;99.90;;;;;;4992342;28;19922;-70
2022/12/20 05:20:03;;;;;;;;;;;9.70;99.90;;;;;;5017636;28;19929;-71
2022/12/20 05:27:57;;;;;;;;;;;9.80;99.90;;;;;;5022185;28;20209;-70
2022/12/20 05:30:24;;;;;;;;;;;9.80;99.90;;;;;;5005650;28;19925;-70
2022/12/20 05:32:49;;;;;;;;;;;9.90;99.90;;;;;;4999730;28;19922;-70
2022/12/20 05:35:15;;;;;;;;;;;9.90;99.90;;;;;;5005708;28;19936;-70
2022/12/20 05:37:41;;;;;;;;;;;9.90;99.90;;;;;;5003983;28;19931;-70
2022/12/20 05:40:07;;;;;;;;;;;10.00;99.90;;;;;;4985924;28;19928;-70
2022/12/20 05:42:33;;;;;;;;;;;10.00;99.90;;;;;;5016037;28;19955;-70
2022/12/20 05:45:00;;;;;;;;;;;10.10;99.90;;;;;;5003063;28;19974;-71
2022/12/20 05:47:26;;;;;;;;;;;10.10;99.90;;;;;;5001305;28;19927;-69
2022/12/20 05:49:51;;;;;;;;;;;10.10;99.90;;;;;;5007449;28;19920;-71
2022/12/20 05:52:20;;;;;;;;;;;10.10;99.90;;;;;;4989214;28;19975;-70
2022/12/20 05:54:46;;;;;;;;;;;10.20;99.90;;;;;;5014447;28;19930;-71
2022/12/20 05:57:13;;;;;;;;;;;10.10;99.90;;;;;;4983216;28;19929;-70
2022/12/20 05:59:39;;;;;;;;;;;10.10;99.90;;;;;;5013389;28;19931;-69
2022/12/20 06:02:05;;;;;;;;;;;10.10;99.90;;;;;;5014181;28;20383;-71
2022/12/20 06:04:31;;;;;;;;;;;10.10;99.90;;;;;;5030807;28;19937;-70
2022/12/20 06:06:58;;;;;;;;;;;10.10;99.90;;;;;;5000896;28;19929;-70
2022/12/20 06:09:24;;;;;;;;;;;10.20;99.90;;;;;;5041124;27;19951;-70
2022/12/20 06:11:50;;;;;;;;;;;10.10;99.90;;;;;;5023488;28;20008;-71
2022/12/20 06:14:16;;;;;;;;;;;10.10;99.90;;;;;;5014875;28;19920;-71
2022/12/20 06:16:41;;;;;;;;;;;10.00;99.90;;;;;;5030589;27;19922;-71
2022/12/20 06:19:07;;;;;;;;;;;10.00;99.90;;;;;;5018491;28;19926;-71
2022/12/20 06:21:33;;;;;;;;;;;10.10;99.90;;;;;;4993157;28;19922;-70
2022/12/20 06:24:00;;;;;;;;;;;10.10;99.90;;;;;;5001950;28;20016;-70
2022/12/20 06:26:26;;;;;;;;;;;10.10;99.90;;;;;;5036351;27;20357;-70
2022/12/20 06:28:55;;;;;;;;;;;10.10;99.90;;;;;;5022591;28;20279;-70
2022/12/20 06:31:21;;;;;;;;;;;10.10;99.90;;;;;;4998649;28;19932;-70
2022/12/20 06:33:47;;;;;;;;;;;10.20;99.90;;;;;;5014912;28;19929;-70
2022/12/20 06:36:12;;;;;;;;;;;10.20;99.90;;;;;;5024396;27;19924;-70
2022/12/20 06:38:38;;;;;;;;;;;10.20;99.90;;;;;;5016431;28;20330;-71
2022/12/20 06:41:04;;;;;;;;;;;10.20;99.90;;;;;;4993157;28;19926;-70
2022/12/20 06:43:30;;;;;;;;;;;10.20;99.90;;;;;;5010139;28;19929;-70
2022/12/20 06:45:55;;;;;;;;;;;10.20;99.90;;;;;;5021831;28;20001;-71
2022/12/20 06:48:21;;;;;;;;;;;10.20;99.90;;;;;;5008783;28;19955;-70
2022/12/20 06:50:47;;;;;;;;;;;10.10;99.90;;;;;;5027232;27;19932;-70
2022/12/20 06:53:13;;;;;;;;;;;10.00;99.90;;;;;;5019732;28;19924;-71
2022/12/20 06:55:39;;;;;;;;;;;10.00;99.90;;;;;;5021320;28;19930;-71
2022/12/20 06:58:04;;;;;;;;;;;10.00;99.90;;;;;;5019416;28;19982;-70
2022/12/20 07:00:30;;;;;;;;;;;9.90;99.90;;;;;;5014415;28;20016;-70
2022/12/20 07:02:56;;;;;;;;;;;9.90;99.90;;;;;;5024269;28;19926;-71
2022/12/20 07:05:22;;;;;;;;;;;10.00;99.90;;;;;;5001422;28;19966;-70
2022/12/20 07:07:48;;;;;;;;;;;9.80;99.90;;;;;;4993310;28;19921;-70
2022/12/20 07:10:13;;;;;;;;;;;9.80;99.90;;;;;;5011681;28;19980;-70
2022/12/20 07:12:39;;;;;;;;;;;9.70;99.90;;;;;;4996290;28;20269;-70
2022/12/20 07:15:06;;;;;;;;;;;9.70;99.90;;;;;;5019030;28;19965;-70
2022/12/20 07:17:32;;;;;;;;;;;9.70;99.90;;;;;;4994910;28;19982;-71
2022/12/20 07:19:58;;;;;;;;;;;9.70;99.90;;;;;;5003382;28;20398;-71
2022/12/20 07:22:26;;;;;;;;;;;9.70;99.90;;;;;;4992614;28;19979;-71
2022/12/20 07:24:52;;;;;;;;;;;9.70;99.90;;;;;;5015971;28;19925;-71
2022/12/20 07:27:18;;;;;;;;;;;9.70;99.90;;;;;;5016738;28;19920;-71
2022/12/20 07:29:43;;;;;;;;;;;9.70;99.90;;;;;;5011020;28;19928;-71
2022/12/20 07:32:10;;;;;;;;;;;9.70;99.90;;;;;;5016324;28;19920;-70
2022/12/20 07:34:36;;;;;;;;;;;9.70;99.90;;;;;;5016572;28;20411;-71
2022/12/20 07:37:02;;;;;;;;;;;9.70;99.90;;;;;;5029148;28;19996;-71
2022/12/20 07:39:29;;;;;;;;;;;9.60;99.90;;;;;;5014103;28;20394;-70
2022/12/20 07:41:55;;;;;;;;;;;9.60;99.90;;;;;;5006153;28;20638;-71
2022/12/20 07:44:21;;;;;;;;;;;9.60;99.90;;;;;;4999437;28;19929;-70
2022/12/20 07:46:47;;;;;;;;;;;9.60;99.90;;;;;;4989637;28;19945;-70
2022/12/20 07:49:14;;;;;;;;;;;9.60;99.90;;;;;;5021046;28;19922;-70
2022/12/20 07:51:45;;;;;;;;;;;9.60;99.90;;;;;;5007497;28;19929;-71
2022/12/20 07:54:12;;;;;;;;;;;9.60;99.90;;;;;;5008724;28;19949;-70
2022/12/20 07:56:41;;;;;;;;;;;9.70;99.90;;;;;;4993419;28;19929;-70
2022/12/20 07:59:10;;;;;;;;;;;9.70;99.90;;;;;;5016969;28;20402;-71
2022/12/20 08:01:35;;;;;;;;;;;9.70;99.90;;;;;;5012428;28;20339;-70
2022/12/20 08:04:07;;;;;;;;;;;9.70;99.90;;;;;;5017427;28;19930;-70
2022/12/20 08:06:35;;;;;;;;;;;9.70;99.90;;;;;;5015890;28;19940;-71
2022/12/20 08:09:02;;;;;;;;;;;9.70;99.90;;;;;;5006252;28;19922;-70
2022/12/20 08:11:29;;;;;;;;;;;9.70;99.90;;;;;;4994791;28;19934;-71
2022/12/20 08:13:55;;;;;;;;;;;9.80;99.90;;;;;;5002528;28;19928;-70
2022/12/20 08:16:20;;;;;;;;;;;9.80;99.90;;;;;;5026636;28;19920;-71
2022/12/20 08:18:46;;;;;;;;;;;9.80;99.90;;;;;;5033403;28;20396;-71
2022/12/20 08:21:13;;;;;;;;;;;9.80;99.90;;;;;;5016676;28;19928;-70
2022/12/20 08:23:39;;;;;;;;;;;9.80;99.90;;;;;;5009510;28;20428;-70
2022/12/20 08:26:05;;;;;;;;;;;10.00;99.90;;;;;;5004770;28;19924;-70
2022/12/20 08:28:31;;;;;;;;;;;10.00;99.90;;;;;;5000248;28;20701;-70
2022/12/20 08:31:02;;;;;;;;;;;10.00;99.90;;;;;;4998363;28;19936;-70
2022/12/20 08:33:28;;;;;;;;;;;10.00;99.90;;;;;;5002219;28;19957;-70
2022/12/20 08:35:58;;;;;;;;;;;10.10;99.90;;;;;;4970640;28;20446;-70
2022/12/20 08:38:27;;;;;;;;;;;10.00;99.90;;;;;;4999044;28;19922;-70
2022/12/20 08:40:53;;;;;;;;;;;10.10;99.90;;;;;;5003418;28;19968;-70
2022/12/20 08:43:19;;;;;;;;;;;10.20;99.90;;;;;;4988342;28;19961;-69
2022/12/20 08:45:55;;;;;;;;;;;10.10;99.90;;;;;;4994550;28;20527;-69
2022/12/20 08:48:21;;;;;;;;;;;10.20;99.90;;;;;;5000041;28;20701;-70
2022/12/20 08:50:47;;;;;;;;;;;10.20;99.90;;;;;;4998706;28;19991;-70
2022/12/20 08:53:12;;;;;;;;;;;10.20;99.90;;;;;;5003361;28;20510;-70
2022/12/20 08:55:39;;;;;;;;;;;10.20;99.90;;;;;;5007394;28;19929;-70
2022/12/20 08:58:05;;;;;;;;;;;10.20;99.90;;;;;;4996509;28;20598;-70
2022/12/20 09:00:30;;;;;;;;;;;10.20;99.90;;;;;;5007796;28;19925;-70
2022/12/20 09:02:56;;;;;;;;;;;10.20;99.90;;;;;;5033765;27;19926;-70
2022/12/20 09:05:25;;;;;;;;;;;10.20;99.90;;;;;;4996361;28;20295;-69
2022/12/20 09:07:51;;;;;;;;;;;10.30;99.90;;;;;;5017058;28;20294;-70
2022/12/20 09:10:21;;;;;;;;;;;10.30;99.90;;;;;;4997873;28;19926;-70
2022/12/20 09:12:50;;;;;;;;;;;10.40;99.90;;;;;;4989532;28;20290;-70
2022/12/20 09:15:21;;;;;;;;;;;10.40;99.90;;;;;;4998333;28;20005;-70
2022/12/20 09:17:47;;;;;;;;;;;10.40;99.90;;;;;;4980003;28;19921;-70
2022/12/20 09:20:14;;;;;;;;;;;10.40;99.90;;;;;;5012491;28;20284;-69
2022/12/20 09:22:40;;;;;;;;;;;10.30;99.90;;;;;;5014058;28;19933;-70
2022/12/20 09:25:06;;;;;;;;;;;10.30;99.90;;;;;;5000228;28;20393;-69
2022/12/20 09:27:31;;;;;;;;;;;10.30;99.90;;;;;;5010665;28;19991;-70
2022/12/20 09:30:00;;;;;;;;;;;10.40;99.90;;;;;;4987517;28;19959;-69
2022/12/20 09:32:26;;;;;;;;;;;10.30;99.90;;;;;;5025790;28;20379;-70
2022/12/20 09:34:52;;;;;;;;;;;10.30;99.90;;;;;;4985494;28;19963;-70
2022/12/20 09:37:19;;;;;;;;;;;10.30;99.90;;;;;;4983341;28;19930;-70
2022/12/20 09:39:44;;;;;;;;;;;10.30;99.90;;;;;;4992980;28;19989;-70
2022/12/20 09:42:13;;;;;;;;;;;10.30;99.90;;;;;;4987314;28;19968;-70
2022/12/20 09:44:40;;;;;;;;;;;10.40;99.90;;;;;;4975853;28;19976;-70
2022/12/20 09:47:09;;;;;;;;;;;10.40;99.90;;;;;;5002395;28;19928;-70
2022/12/20 09:49:38;;;;;;;;;;;10.40;99.90;;;;;;4995153;28;19952;-70
2022/12/20 09:52:25;;;;;;;;;;;10.40;99.90;;;;;;5000888;28;19929;-71
2022/12/20 09:55:06;;;;;;;;;;;10.40;99.90;;;;;;5005654;28;20386;-69
2022/12/20 09:57:41;;;;;;;;;;;10.50;99.90;;;;;;5007495;28;20566;-70
2022/12/20 10:00:16;;;;;;;;;;;10.50;99.90;;;;;;5006725;28;20013;-70
2022/12/20 10:02:42;;;;;;;;;;;10.40;99.90;;;;;;5038990;28;20012;-70
2022/12/20 10:05:15;;;;;;;;;;;10.40;99.90;;;;;;5044636;28;20000;-70
2022/12/20 10:08:01;;;;;;;;;;;10.30;99.90;;;;;;5027393;28;19931;-70
2022/12/20 10:10:40;;;;;;;;;;;10.30;99.90;;;;;;5017997;28;19921;-70
2022/12/20 10:13:21;;;;;;;;;;;10.20;99.90;;;;;;5067091;28;19969;-70
2022/12/20 10:15:53;;;;;;;;;;;10.20;99.90;;;;;;5011152;28;20008;-70
2022/12/20 10:18:28;;;;;;;;;;;10.10;99.90;;;;;;5013692;28;19921;-68
2022/12/20 10:20:57;;;;;;;;;;;10.00;99.90;;;;;;5034543;28;20887;-69
2022/12/20 10:23:22;;;;;;;;;;;9.90;99.90;;;;;;5018817;28;19990;-69
2022/12/20 10:25:50;;;;;;;;;;;9.80;99.90;;;;;;5025271;28;20401;-69
2022/12/20 10:28:19;;;;;;;;;;;9.80;99.90;;;;;;5005841;28;20391;-68
2022/12/20 10:30:44;;;;;;;;;;;9.70;99.90;;;;;;5004591;28;20486;-68
2022/12/20 10:33:15;;;;;;;;;;;9.60;99.90;;;;;;5069359;28;20014;-69
2022/12/20 10:35:42;;;;;;;;;;;9.60;99.90;;;;;;4993676;28;19922;-69
2022/12/20 10:38:11;;;;;;;;;;;9.50;99.90;;;;;;5048065;28;19931;-69
2022/12/20 10:40:41;;;;;;;;;;;9.50;99.90;;;;;;5011254;28;19975;-69
2022/12/20 10:43:13;;;;;;;;;;;9.50;99.90;;;;;;5008820;28;19926;-69
2022/12/20 10:45:40;;;;;;;;;;;9.50;99.90;;;;;;5060116;28;19924;-68
2022/12/20 10:48:25;;;;;;;;;;;9.50;99.90;;;;;;5098370;27;19955;-69
2022/12/20 10:50:59;;;;;;;;;;;9.50;99.90;;;;;;5053873;28;19922;-69
2022/12/20 10:53:26;;;;;;;;;;;9.50;99.90;;;;;;5050054;28;19929;-69
2022/12/20 10:55:58;;;;;;;;;;;9.50;99.90;;;;;;5042655;28;19922;-69
2022/12/20 10:58:26;;;;;;;;;;;9.50;99.90;;;;;;5067708;28;19929;-68
2022/12/20 11:01:02;;;;;;;;;;;9.50;99.90;;;;;;5044724;28;19920;-69
2022/12/20 11:03:28;;;;;;;;;;;9.50;99.90;;;;;;5074892;28;19924;-69
2022/12/20 11:06:03;;;;;;;;;;;9.50;99.90;;;;;;5090308;27;19920;-69
2022/12/20 11:08:31;;;;;;;;;;;9.50;99.90;;;;;;4993907;28;19956;-69
2022/12/20 11:11:10;;;;;;;;;;;9.50;99.90;;;;;;5061941;28;19920;-68
2022/12/20 11:13:36;;;;;;;;;;;9.50;99.90;;;;;;5053003;28;20347;-69
2022/12/20 11:16:02;;;;;;;;;;;9.60;99.90;;;;;;5037105;28;20011;-69
2022/12/20 11:18:27;;;;;;;;;;;9.60;99.90;;;;;;5078549;28;20225;-69
2022/12/20 11:20:53;;;;;;;;;;;9.70;99.90;;;;;;5071464;28;20007;-69
2022/12/20 11:23:21;;;;;;;;;;;9.70;99.90;;;;;;5069144;27;20386;-69
2022/12/20 11:25:59;;;;;;;;;;;9.70;99.90;;;;;;5078108;28;20288;-69
2022/12/20 11:28:35;;;;;;;;;;;9.70;99.90;;;;;;5029070;28;20012;-69
2022/12/20 11:31:29;;;;;;;;;;;9.80;99.90;;;;;;5057759;28;20012;-70
2022/12/20 11:34:18;;;;;;;;;;;9.80;99.90;;;;;;4990243;28;20337;-69
2022/12/20 11:36:48;;;;;;;;;;;9.80;99.90;;;;;;5037365;28;20366;-69
2022/12/20 11:39:22;;;;;;;;;;;9.80;99.90;;;;;;5069058;28;19920;-69
2022/12/20 11:41:54;;;;;;;;;;;9.80;99.90;;;;;;5055552;28;19930;-70
2022/12/20 11:44:19;;;;;;;;;;;9.80;99.90;;;;;;5071770;28;19928;-69
2022/12/20 11:46:55;;;;;;;;;;;9.70;99.90;;;;;;5078398;28;19982;-69
2022/12/20 11:49:53;;;;;;;;;;;9.70;99.90;;;;;;4998039;28;19926;-69
2022/12/20 11:52:25;;;;;;;;;;;9.70;99.90;;;;;;5014558;28;19926;-69
2022/12/20 11:55:10;;;;;;;;;;;9.70;99.90;;;;;;5087021;28;19951;-69
2022/12/20 11:57:43;;;;;;;;;;;9.70;99.90;;;;;;5043150;28;19934;-69
2022/12/20 12:00:14;;;;;;;;;;;9.60;99.90;;;;;;5004815;28;20315;-69
2022/12/20 12:02:50;;;;;;;;;;;9.60;99.90;;;;;;5056823;28;19931;-69
2022/12/20 12:05:15;;;;;;;;;;;9.70;99.90;;;;;;5048829;28;19922;-70
2022/12/20 12:07:42;;;;;;;;;;;9.60;99.90;;;;;;5043297;28;19920;-69
2022/12/20 12:10:22;;;;;;;;;;;9.60;99.90;;;;;;5010812;28;19930;-69
2022/12/20 12:12:51;;;;;;;;;;;9.60;99.90;;;;;;5068823;28;19993;-68
2022/12/20 12:15:22;;;;;;;;;;;9.50;99.90;;;;;;5085457;28;20011;-69
2022/12/20 12:18:11;;;;;;;;;;;9.50;99.90;;;;;;5027229;28;19928;-69
2022/12/20 12:20:39;;;;;;;;;;;9.50;99.90;;;;;;5031824;28;19927;-69
2022/12/20 12:23:24;;;;;;;;;;;9.40;99.90;;;;;;4999746;28;20291;-70
2022/12/20 12:25:50;;;;;;;;;;;9.40;99.90;;;;;;5079924;27;19942;-68
2022/12/20 12:28:16;;;;;;;;;;;9.40;99.90;;;;;;5070936;28;19920;-70
2022/12/20 12:30:57;;;;;;;;;;;9.50;99.90;;;;;;5006853;28;20286;-69
2022/12/20 12:33:40;;;;;;;;;;;9.40;99.90;;;;;;5064378;28;19920;-69
2022/12/20 12:36:35;;;;;;;;;;;9.50;99.90;;;;;;5071552;28;19943;-69
2022/12/20 12:39:19;;;;;;;;;;;9.50;99.90;;;;;;5052654;28;19973;-70
2022/12/20 12:42:06;;;;;;;;;;;9.40;99.90;;;;;;5014917;28;20334;-69
2022/12/20 12:44:38;;;;;;;;;;;9.50;99.90;;;;;;5028149;28;20274;-70
2022/12/20 12:47:10;;;;;;;;;;;9.50;99.90;;;;;;5007471;28;20215;-69
2022/12/20 12:49:36;;;;;;;;;;;9.50;99.90;;;;;;5051426;28;19920;-69
2022/12/20 12:52:04;;;;;;;;;;;9.50;99.90;;;;;;5026427;28;20339;-69
2022/12/20 12:54:29;;;;;;;;;;;9.50;99.90;;;;;;5058137;28;20499;-69
2022/12/20 12:57:02;;;;;;;;;;;9.50;99.90;;;;;;5038511;28;20008;-70
2022/12/20 12:59:33;;;;;;;;;;;9.50;99.90;;;;;;5010201;28;19971;-69
2022/12/20 13:02:04;;;;;;;;;;;9.50;99.90;;;;;;5071329;28;20380;-69
2022/12/20 13:04:50;;;;;;;;;;;9.50;99.90;;;;;;5029069;28;20320;-69
2022/12/20 13:07:29;;;;;;;;;;;9.50;99.90;;;;;;5046837;28;20286;-69
2022/12/20 13:09:55;;;;;;;;;;;9.50;99.90;;;;;;5016702;28;20543;-70
2022/12/20 13:12:41;;;;;;;;;;;9.50;99.90;;;;;;5068992;28;19938;-70
2022/12/20 13:15:18;;;;;;;;;;;9.50;99.90;;;;;;4995296;28;19951;-70
2022/12/20 13:17:44;;;;;;;;;;;9.50;99.90;;;;;;5094946;28;20392;-69
2022/12/20 13:20:21;;;;;;;;;;;9.50;99.90;;;;;;5075331;28;19920;-69
2022/12/20 13:23:22;;;;;;;;;;;9.50;99.90;;;;;;5080570;28;19924;-69
2022/12/20 13:25:50;;;;;;;;;;;9.50;99.90;;;;;;5011801;28;20023;-69
2022/12/20 13:28:22;;;;;;;;;;;9.50;99.90;;;;;;5067651;28;19969;-69
2022/12/20 13:31:08;;;;;;;;;;;9.50;99.90;;;;;;5061245;28;19927;-70
2022/12/20 13:33:50;;;;;;;;;;;9.50;99.90;;;;;;5056105;28;19961;-69
2022/12/20 13:36:16;;;;;;;;;;;9.50;99.90;;;;;;5038055;28;19927;-69
2022/12/20 13:38:44;;;;;;;;;;;9.50;99.90;;;;;;5041733;28;19922;-70
2022/12/20 13:41:10;;;;;;;;;;;9.50;99.90;;;;;;4986812;28;19937;-70
2022/12/20 13:43:41;;;;;;;;;;;9.50;99.90;;;;;;5023706;28;19926;-70
2022/12/20 13:46:09;;;;;;;;;;;9.50;99.90;;;;;;5012386;28;20299;-70
2022/12/20 13:48:37;;;;;;;;;;;9.50;99.90;;;;;;5025863;28;19982;-70
2022/12/20 13:51:04;;;;;;;;;;;9.50;99.90;;;;;;5007380;28;19940;-69
2022/12/20 13:53:30;;;;;;;;;;;9.50;99.90;;;;;;5002897;28;19933;-69
2022/12/20 13:55:56;;;;;;;;;;;9.50;99.90;;;;;;5023680;28;19940;-70
2022/12/20 13:58:27;;;;;;;;;;;9.50;99.90;;;;;;5017848;28;20191;-70
2022/12/20 14:00:53;;;;;;;;;;;9.50;99.90;;;;;;5024887;28;19922;-70
2022/12/20 14:03:21;;;;;;;;;;;9.50;99.90;;;;;;5012559;28;20020;-69
2022/12/20 14:05:47;;;;;;;;;;;9.50;99.90;;;;;;5024351;28;20012;-70
2022/12/20 14:08:17;;;;;;;;;;;9.50;99.90;;;;;;5012785;28;20009;-70
2022/12/20 14:10:43;;;;;;;;;;;9.60;99.90;;;;;;5031868;28;19927;-70
2022/12/20 14:13:18;;;;;;;;;;;9.50;99.90;;;;;;5032152;28;20280;-69
2022/12/20 14:15:43;;;;;;;;;;;9.50;99.90;;;;;;5024665;28;19926;-70
2022/12/20 14:18:16;;;;;;;;;;;9.50;99.90;;;;;;5010969;28;20311;-69
2022/12/20 14:20:43;;;;;;;;;;;9.50;99.90;;;;;;5009736;28;19992;-69
2022/12/20 14:23:16;;;;;;;;;;;9.50;99.90;;;;;;5007034;28;19932;-69
2022/12/20 14:25:45;;;;;;;;;;;9.60;99.90;;;;;;5023778;28;20409;-70
2022/12/20 14:28:22;;;;;;;;;;;9.60;99.90;;;;;;4976532;28;19925;-70
2022/12/20 14:30:48;;;;;;;;;;;9.60;99.90;;;;;;4996260;28;20644;-70
2022/12/20 14:33:29;;;;;;;;;;;9.60;99.90;;;;;;5020357;27;19922;-70
2022/12/20 14:35:55;;;;;;;;;;;9.60;99.90;;;;;;5006735;28;20310;-70
2022/12/20 14:38:27;;;;;;;;;;;9.60;99.90;;;;;;5023019;28;20282;-70
2022/12/20 14:40:53;;;;;;;;;;;9.60;99.90;;;;;;5003405;28;20013;-70
2022/12/20 14:43:27;;;;;;;;;;;9.60;99.90;;;;;;4986177;28;20280;-70
2022/12/20 14:46:12;;;;;;;;;;;9.60;99.90;;;;;;5025636;28;20335;-70
2022/12/20 14:48:38;;;;;;;;;;;9.60;99.90;;;;;;5017683;28;20425;-70